Time;durP1;ratioP1;P1;durP2;ratioP2;P2;SDS_P1;SDS_P2;PMS_P1;PMS_P2;Temp;Humidity;BMP_temperature;BMP_pressure;BME280_temperature;BME280_humidity;BME280_pressure;Samples;Min_cycle;Max_cycle;Signal;HPM_P1;HPM_P2
2021/12/21 00:00:52;;;;;;;42.50;19.45;;;;;;;1.28;100.00;101261.34;5115422;28;20051;-51
2021/12/21 00:03:20;;;;;;;43.42;18.58;;;;;;;1.30;100.00;101258.72;5116610;28;20449;-51
2021/12/21 00:05:49;;;;;;;44.65;18.77;;;;;;;1.24;100.00;101253.53;5115615;28;20063;-52
2021/12/21 00:08:18;;;;;;;40.97;19.27;;;;;;;1.25;100.00;101265.75;5115600;28;20499;-51
2021/12/21 00:11:06;;;;;;;47.35;20.20;;;;;;;1.25;100.00;101260.53;5115753;28;20104;-51
2021/12/21 00:13:55;;;;;;;43.60;19.83;;;;;;;1.26;100.00;101267.47;5115792;28;20064;-51
2021/12/21 00:16:50;;;;;;;44.05;19.65;;;;;;;1.34;100.00;101270.84;5115248;28;20059;-51
2021/12/21 00:19:38;;;;;;;43.00;19.63;;;;;;;1.31;100.00;101270.88;5115787;28;20063;-51
2021/12/21 00:22:18;;;;;;;43.08;19.23;;;;;;;1.32;100.00;101266.53;5115138;28;20052;-51
2021/12/21 00:24:49;;;;;;;41.22;19.63;;;;;;;1.32;100.00;101262.16;5115941;28;20048;-52
2021/12/21 00:27:17;;;;;;;45.90;20.52;;;;;;;1.27;100.00;101269.19;5114970;28;20055;-51
2021/12/21 00:29:45;;;;;;;43.33;20.02;;;;;;;1.28;100.00;101268.34;5114909;28;20055;-51
2021/12/21 00:32:13;;;;;;;41.15;19.48;;;;;;;1.23;100.00;101259.69;5115565;28;20463;-51
2021/12/21 00:34:42;;;;;;;42.72;18.75;;;;;;;1.23;100.00;101257.91;5115794;28;20055;-51
2021/12/21 00:37:10;;;;;;;45.83;20.45;;;;;;;1.29;100.00;101256.97;5115661;28;20376;-50
2021/12/21 00:39:38;;;;;;;42.70;18.58;;;;;;;1.30;100.00;101258.72;5115703;28;20059;-51
2021/12/21 00:42:09;;;;;;;40.75;18.52;;;;;;;1.35;100.00;101256.06;5115056;28;20063;-51
2021/12/21 00:44:37;;;;;;;45.15;20.55;;;;;;;1.32;100.00;101248.25;5115042;28;20071;-51
2021/12/21 00:47:05;;;;;;;44.15;19.85;;;;;;;1.24;100.00;101253.53;5114914;28;20067;-51
2021/12/21 00:49:35;;;;;;;39.72;19.88;;;;;;;1.21;100.00;101245.75;5114639;28;20565;-52
2021/12/21 00:52:04;;;;;;;49.65;20.10;;;;;;;1.18;100.00;101251.00;5114372;28;20062;-52
2021/12/21 00:54:32;;;;;;;41.50;20.15;;;;;;;1.12;100.00;101241.50;5114405;28;20055;-51
2021/12/21 00:57:04;;;;;;;39.38;20.00;;;;;;;1.09;100.00;101237.19;5114856;28;20059;-52
2021/12/21 00:59:34;;;;;;;46.72;21.40;;;;;;;1.03;100.00;101226.78;5114307;28;20062;-51
2021/12/21 01:02:02;;;;;;;46.55;21.10;;;;;;;1.04;100.00;101235.47;5114848;28;20059;-51
2021/12/21 01:04:35;;;;;;;48.00;22.30;;;;;;;1.02;100.00;101238.09;5115423;28;20051;-51
2021/12/21 01:07:10;;;;;;;48.13;21.48;;;;;;;1.03;100.00;101234.63;5114172;28;20059;-52
2021/12/21 01:10:04;;;;;;;50.67;22.92;;;;;;;1.04;100.00;101233.75;5114459;28;20056;-51
2021/12/21 01:12:46;;;;;;;45.22;21.55;;;;;;;1.07;100.00;101236.31;5114502;28;20499;-52
2021/12/21 01:15:28;;;;;;;49.05;21.65;;;;;;;1.09;100.00;101220.59;5114938;28;20149;-52
2021/12/21 01:18:01;;;;;;;48.45;22.40;;;;;;;1.13;100.00;101224.06;5114453;28;20059;-51
2021/12/21 01:20:35;;;;;;;48.08;21.92;;;;;;;1.15;100.00;101220.56;5114811;28;20463;-51
2021/12/21 01:23:35;;;;;;;45.60;22.55;;;;;;;1.20;100.00;101220.50;5114365;28;20059;-51
2021/12/21 01:26:10;;;;;;;54.15;21.80;;;;;;;1.19;100.00;101218.75;5114662;28;20086;-51
2021/12/21 01:28:43;;;;;;;44.15;21.67;;;;;;;1.21;100.00;101217.00;5114051;28;20503;-51
2021/12/21 01:31:27;;;;;;;45.88;23.23;;;;;;;1.14;100.00;101220.56;5113967;28;20052;-51
2021/12/21 01:34:09;;;;;;;47.10;23.10;;;;;;;1.11;100.00;101217.13;5114013;28;20052;-51
2021/12/21 01:36:43;;;;;;;47.58;22.23;;;;;;;1.08;100.00;101208.44;5113996;28;20060;-51
2021/12/21 01:39:27;;;;;;;44.08;22.30;;;;;;;1.08;100.00;101211.91;5114295;28;20506;-51
2021/12/21 01:42:01;;;;;;;42.40;21.75;;;;;;;1.08;100.00;101211.91;5114274;28;20058;-50
2021/12/21 01:49:31;;;;;;;45.20;21.63;;;;;;;1.07;100.00;101209.31;5114425;28;20051;-50
2021/12/21 01:50:07;;;;;;;49.45;22.63;;;;;;;1.15;100.00;101217.09;5113819;28;20051;-50
2021/12/21 01:52:35;;;;;;;48.28;23.52;;;;;;;1.11;100.00;101211.88;5115162;28;20055;-49
2021/12/21 01:55:04;;;;;;;44.75;22.20;;;;;;;1.14;100.00;101220.56;5113847;28;20056;-49
2021/12/21 01:57:32;;;;;;;46.20;23.83;;;;;;;1.13;100.00;101213.59;5114363;28;20066;-49
2021/12/21 02:00:01;;;;;;;45.35;23.08;;;;;;;1.08;100.00;101211.06;5114342;28;20089;-49
2021/12/21 02:02:31;;;;;;;49.20;24.00;;;;;;;1.03;100.00;101216.34;5114429;28;20067;-50
2021/12/21 02:04:59;;;;;;;48.85;25.13;;;;;;;1.06;100.00;101213.69;5117577;28;20070;-49
2021/12/21 02:07:28;;;;;;;44.53;23.15;;;;;;;1.03;100.00;101216.34;5117558;28;20514;-49
2021/12/21 02:09:56;;;;;;;50.80;25.45;;;;;;;1.03;100.00;101215.47;5117593;28;20056;-53
2021/12/21 02:12:24;;;;;;;48.33;25.42;;;;;;;1.04;100.00;101211.97;5119040;28;20082;-49
2021/12/21 02:14:57;;;;;;;46.00;23.88;;;;;;;1.08;100.00;101217.16;5118178;28;20066;-49
2021/12/21 02:18:06;;;;;;;46.08;23.92;;;;;;;0.99;100.00;101208.53;5117570;28;20101;-49
2021/12/21 02:20:43;;;;;;;46.03;23.85;;;;;;;1.06;100.00;101228.47;5117401;28;20137;-49
2021/12/21 02:23:16;;;;;;;45.63;23.77;;;;;;;1.01;100.00;101223.34;5117119;28;20059;-49
2021/12/21 02:26:06;;;;;;;;;;;;;;;1.03;100.00;101223.31;5117532;28;20077;-50
2021/12/21 02:28:47;;;;;;;49.03;24.50;;;;;;;1.01;100.00;101220.72;5116976;28;19923;-49
2021/12/21 02:31:17;;;;;;;47.73;24.17;;;;;;;1.00;100.00;101218.97;5117023;28;20507;-50
2021/12/21 02:33:47;;;;;;;46.35;25.60;;;;;;;1.00;100.00;101211.13;5118078;28;20051;-49
2021/12/21 02:36:17;;;;;;;48.53;24.42;;;;;;;1.02;100.00;101224.19;5118012;28;20444;-50
2021/12/21 02:38:45;;;;;;;45.22;24.48;;;;;;;1.04;100.00;101225.91;5117375;28;20059;-51
2021/12/21 02:41:14;;;;;;;40.90;23.42;;;;;;;0.99;100.00;101222.47;5117018;28;20067;-52
2021/12/21 02:43:43;;;;;;;48.92;23.48;;;;;;;0.99;100.00;101229.44;5117917;28;20066;-52
2021/12/21 02:46:11;;;;;;;44.35;24.50;;;;;;;1.00;100.00;101229.44;5116905;28;20056;-49
2021/12/21 02:48:40;;;;;;;46.20;24.17;;;;;;;1.02;100.00;101221.56;5116811;28;20087;-50
2021/12/21 02:51:08;;;;;;;42.58;22.63;;;;;;;1.00;100.00;101221.59;5116801;28;20067;-49
2021/12/21 02:53:37;;;;;;;46.60;23.67;;;;;;;1.00;100.00;101221.59;5116515;28;20052;-49
2021/12/21 02:56:06;;;;;;;47.42;23.77;;;;;;;1.03;100.00;101223.31;5117306;28;20055;-49
2021/12/21 02:58:35;;;;;;;43.08;23.40;;;;;;;1.09;100.00;101226.72;5117187;28;20538;-49
2021/12/21 03:01:03;;;;;;;41.88;22.17;;;;;;;1.06;100.00;101224.13;5117250;28;20082;-50
2021/12/21 03:03:31;;;;;;;43.90;23.33;;;;;;;1.09;100.00;101224.13;5117522;28;20062;-49
2021/12/21 03:06:01;;;;;;;42.95;22.15;;;;;;;1.13;100.00;101224.06;5117155;28;20056;-49
2021/12/21 03:08:37;;;;;;;40.90;21.08;;;;;;;1.09;100.00;101221.50;5116429;28;20062;-49
2021/12/21 03:11:14;;;;;;;44.90;23.73;;;;;;;1.09;100.00;101224.13;5116999;28;20051;-49
2021/12/21 03:13:55;;;;;;;43.03;21.88;;;;;;;1.09;100.00;101223.22;5117329;28;20062;-49
2021/12/21 03:16:23;;;;;;;41.67;22.40;;;;;;;1.09;100.00;101224.13;5115821;28;20056;-49
2021/12/21 03:18:56;;;;;;;37.83;20.95;;;;;;;1.03;100.00;101212.88;5116238;28;20055;-50
2021/12/21 03:21:24;;;;;;;43.95;23.60;;;;;;;1.00;100.00;101211.13;5117441;28;20058;-49
2021/12/21 03:23:52;;;;;;;43.38;21.85;;;;;;;0.99;100.00;101212.00;5116794;28;20051;-50
2021/12/21 03:26:22;;;;;;;46.75;22.52;;;;;;;1.02;100.00;101201.53;5116128;28;20464;-50
2021/12/21 03:28:51;;;;;;;39.88;21.90;;;;;;;1.02;100.00;101206.75;5116308;28;20063;-49
2021/12/21 03:31:19;;;;;;;41.80;21.58;;;;;;;1.04;100.00;101207.63;5116330;28;20487;-49
2021/12/21 03:33:48;;;;;;;44.25;22.67;;;;;;;1.05;100.00;101217.16;5116584;28;20094;-49
2021/12/21 03:36:17;;;;;;;42.80;21.80;;;;;;;1.03;100.00;101211.09;5116217;28;20058;-50
2021/12/21 03:38:52;;;;;;;42.90;22.55;;;;;;;1.05;100.00;101206.72;5115888;28;20067;-49
2021/12/21 03:41:22;;;;;;;46.08;22.85;;;;;;;1.13;100.00;101214.50;5115576;28;20048;-50
2021/12/21 03:43:50;;;;;;;41.67;22.23;;;;;;;1.07;100.00;101204.94;5116062;28;20060;-50
2021/12/21 03:46:18;;;;;;;41.25;20.77;;;;;;;1.03;100.00;101208.50;5115698;28;20051;-49
2021/12/21 03:48:48;;;;;;;40.47;22.30;;;;;;;0.96;100.00;101205.97;5115570;28;20060;-49
2021/12/21 03:51:18;;;;;;;40.90;21.65;;;;;;;0.81;100.00;101196.53;5115649;28;20051;-49
2021/12/21 03:53:47;;;;;;;39.22;19.77;;;;;;;0.65;100.00;101199.31;5116543;28;20055;-49
2021/12/21 03:56:40;;;;;;;42.88;20.77;;;;;;;0.52;100.00;101195.09;5115555;28;20056;-50
2021/12/21 03:59:09;;;;;;;40.88;20.85;;;;;;;0.38;100.00;101196.97;5116372;28;20402;-49
2021/12/21 04:01:38;;;;;;;42.17;20.50;;;;;;;0.18;100.00;101196.28;5115712;28;20143;-49
2021/12/21 04:04:08;;;;;;;46.58;22.25;;;;;;;0.07;100.00;101203.31;5115420;28;20055;-49
2021/12/21 04:06:36;;;;;;;39.88;21.67;;;;;;;-0.04;100.00;101202.53;5116400;28;20108;-49
2021/12/21 04:09:06;;;;;;;45.10;20.33;;;;;;;-0.15;100.00;101202.63;5115250;28;20056;-49
2021/12/21 04:11:34;;;;;;;43.55;21.48;;;;;;;-0.27;100.00;101192.25;5115296;28;20518;-49
2021/12/21 04:14:03;;;;;;;42.75;22.35;;;;;;;-0.28;100.00;101200.97;5115529;28;20059;-49
2021/12/21 04:16:33;;;;;;;46.58;21.45;;;;;;;-0.31;100.00;101193.16;5116064;28;20051;-49
2021/12/21 04:19:02;;;;;;;44.78;22.30;;;;;;;-0.48;100.00;101191.50;5116382;28;20070;-49
2021/12/21 04:21:31;;;;;;;47.53;21.30;;;;;;;-0.60;100.00;101183.75;5115055;28;20556;-49
2021/12/21 04:23:59;;;;;;;46.28;22.27;;;;;;;-0.66;100.00;101183.78;5115098;28;20062;-49
2021/12/21 04:26:27;;;;;;;46.72;22.52;;;;;;;-0.70;100.00;101179.47;5114595;28;20418;-49
2021/12/21 04:28:55;;;;;;;44.00;20.33;;;;;;;-0.87;100.00;101172.59;5114865;28;20052;-49
2021/12/21 04:31:24;;;;;;;43.78;20.52;;;;;;;-0.94;100.00;101170.91;5115562;28;20058;-50
2021/12/21 04:33:53;;;;;;;43.90;20.52;;;;;;;-1.06;100.00;101163.09;5115817;28;20058;-49
2021/12/21 04:36:22;;;;;;;39.78;19.52;;;;;;;-1.14;100.00;101166.63;5114868;28;20052;-49
2021/12/21 04:38:51;;;;;;;43.08;20.65;;;;;;;-1.22;100.00;101163.16;5115156;28;20557;-50
2021/12/21 04:41:23;;;;;;;44.33;20.00;;;;;;;-1.31;100.00;101168.41;5115051;28;20051;-49
2021/12/21 04:43:53;;;;;;;39.28;19.25;;;;;;;-1.42;100.00;101170.16;5115148;28;20052;-50
2021/12/21 04:46:23;;;;;;;33.30;17.90;;;;;;;-1.52;100.00;101164.09;5114510;28;20134;-49
2021/12/21 04:48:53;;;;;;;42.55;20.05;;;;;;;-1.48;100.00;101165.81;5114566;28;20059;-49
2021/12/21 04:51:21;;;;;;;37.50;18.85;;;;;;;-1.52;100.00;101175.38;5115509;28;20058;-50
2021/12/21 04:53:50;;;;;;;43.58;19.77;;;;;;;-1.56;100.00;101172.81;5115308;28;20423;-49
2021/12/21 04:56:18;;;;;;;40.97;19.63;;;;;;;-1.65;100.00;101173.66;5114619;28;20052;-49
2021/12/21 04:58:46;;;;;;;34.25;16.92;;;;;;;-1.71;100.00;101178.88;5114513;28;20070;-50
2021/12/21 05:01:16;;;;;;;43.60;19.80;;;;;;;-1.73;100.00;101175.41;5114564;28;20499;-50
2021/12/21 05:03:44;;;;;;;47.72;20.83;;;;;;;-1.77;100.00;101168.47;5115755;28;20388;-50
2021/12/21 05:06:15;;;;;;;39.42;19.42;;;;;;;-1.80;100.00;101171.97;5114510;28;20060;-49
2021/12/21 05:08:52;;;;;;;32.33;15.55;;;;;;;-1.85;100.00;101165.88;5115614;28;20082;-49
2021/12/21 05:11:21;;;;;;;42.92;18.60;;;;;;;-1.88;100.00;101158.94;5114187;28;20056;-50
2021/12/21 05:13:49;;;;;;;43.80;18.60;;;;;;;-1.95;100.00;101169.34;5114159;28;20094;-49
2021/12/21 05:16:17;;;;;;;39.92;19.27;;;;;;;-2.01;100.00;101159.81;5114384;28;20059;-49
2021/12/21 05:18:45;;;;;;;41.53;19.48;;;;;;;-2.08;100.00;101161.56;5114373;28;20082;-49
2021/12/21 05:21:15;;;;;;;42.10;20.52;;;;;;;-2.11;100.00;101165.88;5114385;28;20055;-50
2021/12/21 05:23:43;;;;;;;42.88;20.13;;;;;;;-2.16;100.00;101158.06;5114130;28;20055;-50
2021/12/21 05:26:12;;;;;;;50.72;21.80;;;;;;;-2.11;100.00;101158.09;5114652;28;20081;-50
2021/12/21 05:28:40;;;;;;;44.58;21.02;;;;;;;-2.11;100.00;101168.47;5114474;28;20051;-50
2021/12/21 05:31:08;;;;;;;37.75;19.05;;;;;;;-2.15;100.00;101161.53;5114582;28;20059;-50
2021/12/21 05:33:36;;;;;;;51.05;21.20;;;;;;;-2.16;100.00;101165.88;5114880;28;20059;-50
2021/12/21 05:36:05;;;;;;;54.90;24.70;;;;;;;-2.12;100.00;101161.53;5114225;28;20056;-50
2021/12/21 05:38:35;;;;;;;55.35;21.92;;;;;;;-2.10;100.00;101157.19;5116315;28;20051;-50
2021/12/21 05:41:06;;;;;;;47.63;21.35;;;;;;;-2.06;100.00;101146.81;5119392;28;20052;-50
2021/12/21 05:43:35;;;;;;;47.28;22.60;;;;;;;-2.01;100.00;101156.34;5119124;28;20062;-50
2021/12/21 05:46:03;;;;;;;50.35;22.73;;;;;;;-2.05;100.00;101163.28;5118062;28;20052;-50
2021/12/21 05:48:31;;;;;;;51.83;22.77;;;;;;;-2.15;100.00;101161.53;5118365;28;20055;-50
2021/12/21 05:50:59;;;;;;;60.95;23.10;;;;;;;-2.21;100.00;101161.56;5117959;28;20062;-50
2021/12/21 05:53:27;;;;;;;56.50;22.02;;;;;;;-2.16;100.00;101154.63;5118168;28;20055;-50
2021/12/21 05:55:57;;;;;;;49.08;21.73;;;;;;;-2.14;100.00;101164.13;5118158;28;20056;-49
2021/12/21 05:58:25;;;;;;;46.15;21.02;;;;;;;-2.18;100.00;101156.34;5118107;28;20063;-50
2021/12/21 06:00:53;;;;;;;51.47;23.10;;;;;;;-2.25;100.00;101158.94;5117739;28;20101;-50
2021/12/21 06:03:22;;;;;;;46.35;21.45;;;;;;;-2.24;100.00;101162.41;5117988;28;20109;-49
2021/12/21 06:05:53;;;;;;;;;;;;;;;-2.29;100.00;101164.97;5119113;28;20059;-50
2021/12/21 06:08:23;;;;;;;40.03;18.95;;;;;;;-2.34;100.00;101161.50;5117639;28;19926;-50
2021/12/21 06:10:54;;;;;;;39.90;18.88;;;;;;;-2.38;100.00;101164.13;5117531;28;20059;-50
2021/12/21 06:13:44;;;;;;;46.45;20.13;;;;;;;-2.43;100.00;101157.19;5117312;28;20052;-50
2021/12/21 06:22:44;;;;;;;47.53;20.50;;;;;;;-2.38;100.00;101158.94;5117945;28;20056;-50
2021/12/21 06:27:45;;;;;;;58.25;23.13;;;;;;;-2.52;100.00;101151.09;5118234;28;20055;-51
2021/12/21 06:30:16;;;;;;;52.70;23.38;;;;;;;-2.52;100.00;101151.09;5118037;28;20055;-51
2021/12/21 06:32:44;;;;;;;60.65;23.58;;;;;;;-2.51;100.00;101145.03;5116953;28;20510;-52
2021/12/21 06:35:14;;;;;;;56.75;22.52;;;;;;;-2.49;100.00;101152.00;5116912;28;20055;-51
2021/12/21 06:37:43;;;;;;;51.33;21.90;;;;;;;-2.50;100.00;101150.25;5117438;28;20051;-52
2021/12/21 06:40:12;;;;;;;59.85;24.77;;;;;;;-2.47;100.00;101145.06;5117572;28;20063;-51
2021/12/21 06:42:40;;;;;;;56.85;22.73;;;;;;;-2.49;100.00;101145.91;5117009;28;20052;-52
2021/12/21 06:45:23;;;;;;;61.13;23.77;;;;;;;-2.49;100.00;101152.00;5117733;28;20438;-51
2021/12/21 06:53:25;;;;;;;66.20;24.95;;;;;;;-2.43;100.00;101144.19;5116910;28;20056;-51
2021/12/21 06:55:53;;;;;;;65.20;25.55;;;;;;;-2.43;100.00;101145.91;5116770;28;20052;-52
2021/12/21 06:58:21;;;;;;;63.78;23.90;;;;;;;-2.46;100.00;101145.91;5116685;28;20071;-51
2021/12/21 07:00:52;;;;;;;64.28;23.95;;;;;;;-2.50;100.00;101154.59;5117685;28;20086;-51
2021/12/21 07:03:23;;;;;;;60.60;23.73;;;;;;;-2.51;100.00;101151.09;5116443;28;20496;-51
2021/12/21 07:05:52;;;;;;;70.85;25.90;;;;;;;-2.41;100.00;101162.38;5117274;28;20473;-51
2021/12/21 07:08:25;;;;;;;66.15;24.20;;;;;;;-2.43;100.00;101161.50;5117238;28;20411;-52
2021/12/21 07:11:01;;;;;;;61.28;24.88;;;;;;;-2.50;100.00;101155.44;5117069;28;20441;-52
2021/12/21 07:19:03;;;;;;;61.85;23.83;;;;;;;-2.52;100.00;101169.28;5117254;28;20063;-51
2021/12/21 07:21:32;;;;;;;59.92;23.20;;;;;;;-2.56;100.00;101162.34;5116852;28;20097;-52
2021/12/21 07:24:00;;;;;;;55.38;21.20;;;;;;;-2.63;100.00;101151.94;5117388;28;20072;-52
2021/12/21 07:26:28;;;;;;;58.60;23.27;;;;;;;-2.66;100.00;101148.47;5117035;28;20048;-51
2021/12/21 07:28:57;;;;;;;57.90;22.23;;;;;;;-2.70;100.00;101151.94;5116330;28;20089;-51
2021/12/21 07:31:25;;;;;;;56.33;22.20;;;;;;;-2.76;100.00;101151.91;5117167;28;20055;-51
2021/12/21 07:33:53;;;;;;;61.25;22.48;;;;;;;-2.81;100.00;101147.56;5117026;28;20070;-52
2021/12/21 07:36:23;;;;;;;48.95;21.20;;;;;;;-2.84;100.00;101154.47;5116793;28;20051;-51
2021/12/21 07:38:51;;;;;;;47.97;20.40;;;;;;;-2.87;100.00;101155.34;5116258;28;20052;-51
2021/12/21 07:41:20;;;;;;;50.50;22.35;;;;;;;-2.83;100.00;101161.41;5116416;28;20090;-51
2021/12/21 07:43:48;;;;;;;57.13;22.70;;;;;;;-2.80;100.00;101172.66;5116683;28;20067;-51
2021/12/21 07:46:17;;;;;;;55.15;22.58;;;;;;;-2.72;100.00;101169.22;5115746;28;20519;-51
2021/12/21 07:48:45;;;;;;;52.65;21.10;;;;;;;-2.72;100.00;101170.09;5115678;28;20063;-51
2021/12/21 07:51:14;;;;;;;56.17;23.00;;;;;;;-2.71;100.00;101181.34;5115592;28;20055;-51
2021/12/21 07:53:44;;;;;;;52.97;21.02;;;;;;;-2.68;100.00;101176.19;5116017;28;20056;-51
2021/12/21 07:56:13;;;;;;;57.53;23.33;;;;;;;-2.72;100.00;101174.41;5115373;28;20056;-51
2021/12/21 07:58:42;;;;;;;54.67;21.35;;;;;;;-2.70;100.00;101177.91;5116108;28;20062;-51
2021/12/21 08:01:11;;;;;;;57.78;21.45;;;;;;;-2.74;100.00;101171.84;5115118;28;20434;-51
2021/12/21 08:03:39;;;;;;;62.40;23.90;;;;;;;-2.68;100.00;101179.63;5116349;28;20063;-51
2021/12/21 08:06:11;;;;;;;66.80;24.48;;;;;;;-2.60;100.00;101184.84;5115369;28;20111;-51
2021/12/21 08:08:42;;;;;;;;;;;;;;;-2.57;100.00;101189.19;5115495;28;20059;-51
2021/12/21 08:11:16;;;;;;;71.63;21.90;;;;;;;-2.58;100.00;101187.47;5115005;28;19931;-51
2021/12/21 08:13:47;;;;;;;62.25;22.05;;;;;;;-2.56;100.00;101196.13;5115020;28;20063;-51
2021/12/21 08:16:15;;;;;;;59.45;23.38;;;;;;;-2.54;100.00;101199.59;5114991;28;20051;-51
2021/12/21 08:18:43;;;;;;;66.70;25.42;;;;;;;-2.51;100.00;101200.47;5115141;28;20052;-51
2021/12/21 08:21:16;;;;;;;76.05;26.48;;;;;;;-2.49;100.00;101192.66;5115427;28;20056;-51
2021/12/21 08:23:44;;;;;;;81.75;24.70;;;;;;;-2.43;100.00;101192.69;5115188;28;20063;-51
2021/12/21 08:26:14;;;;;;;63.60;23.20;;;;;;;-2.47;100.00;101180.53;5115905;28;20384;-51
2021/12/21 08:28:42;;;;;;;65.65;24.15;;;;;;;-2.33;100.00;101209.19;5115288;28;20051;-51
2021/12/21 08:31:12;;;;;;;71.10;24.58;;;;;;;-2.32;100.00;101211.78;5115738;28;20059;-51
2021/12/21 08:33:42;;;;;;;65.60;24.88;;;;;;;-2.19;100.00;101217.84;5114970;28;20515;-51
2021/12/21 08:36:11;;;;;;;69.55;25.88;;;;;;;-2.07;100.00;101223.09;5114845;28;20059;-51
2021/12/21 08:38:43;;;;;;;76.20;27.67;;;;;;;-1.95;100.00;101223.94;5114841;28;20062;-51
2021/12/21 08:41:12;;;;;;;88.13;27.85;;;;;;;-1.86;100.00;101218.78;5114586;28;20056;-51
2021/12/21 08:43:41;;;;;;;89.72;26.58;;;;;;;-1.79;100.00;101224.84;5114437;28;20553;-52
2021/12/21 08:46:09;;;;;;;86.40;27.58;;;;;;;-1.65;100.00;101219.63;5114729;28;20047;-51
2021/12/21 08:48:37;;;;;;;87.00;28.17;;;;;;;-1.60;100.00;101223.94;5114747;28;20062;-51
2021/12/21 08:51:06;;;;;;;85.05;29.10;;;;;;;-1.52;100.00;101224.81;5116339;28;20078;-52
2021/12/21 08:53:36;;;;;;;80.90;26.65;;;;;;;-1.43;100.00;101223.97;5114409;28;20062;-51
2021/12/21 08:56:05;;;;;;;76.75;25.27;;;;;;;-1.42;100.00;101222.22;5115424;28;20051;-52
2021/12/21 08:58:35;;;;;;;79.95;27.30;;;;;;;-1.30;100.00;101219.59;5114857;28;20052;-52
2021/12/21 09:01:03;;;;;;;76.78;27.65;;;;;;;-1.15;100.00;101216.09;5115147;28;20400;-51
2021/12/21 09:03:32;;;;;;;87.13;27.90;;;;;;;-0.96;100.00;101209.97;5115588;28;20063;-51
2021/12/21 09:06:00;;;;;;;77.45;27.65;;;;;;;-0.85;100.00;101209.91;5114319;28;20059;-52
2021/12/21 09:08:28;;;;;;;85.65;28.25;;;;;;;-0.69;100.00;101209.84;5114853;28;20058;-52
2021/12/21 09:11:03;;;;;;;94.13;30.10;;;;;;;-0.59;100.00;101206.31;5114390;28;20059;-52
2021/12/21 09:13:31;;;;;;;89.18;30.20;;;;;;;-0.21;100.00;101202.66;5117730;28;20087;-52
2021/12/21 09:16:01;;;;;;;89.18;29.10;;;;;;;0.22;100.00;101207.56;5119002;28;20059;-52
2021/12/21 09:18:29;;;;;;;84.63;30.38;;;;;;;0.65;100.00;101191.47;5118954;28;20411;-52
2021/12/21 09:20:57;;;;;;;83.85;29.63;;;;;;;0.78;100.00;101201.81;5118979;28;20067;-52
2021/12/21 09:23:28;;;;;;;82.43;28.92;;;;;;;1.07;100.00;101210.16;5118619;28;20052;-52
2021/12/21 09:25:56;;;;;;;69.72;28.25;;;;;;;1.31;100.00;101213.38;5119703;28;20052;-52
2021/12/21 09:28:24;;;;;;;79.20;29.13;;;;;;;1.84;100.00;101219.63;5118731;28;20052;-52
2021/12/21 09:30:53;;;;;;;78.97;28.83;;;;;;;2.38;100.00;101220.56;5118329;28;20098;-52
2021/12/21 09:33:22;;;;;;;64.28;27.02;;;;;;;2.26;100.00;101210.28;5118158;28;20066;-52
2021/12/21 09:35:52;;;;;;;64.22;25.35;;;;;;;2.63;100.00;101214.91;5118960;28;20055;-52
2021/12/21 09:38:21;;;;;;;45.47;22.52;;;;;;;3.06;100.00;101203.59;5118881;28;20063;-52
2021/12/21 09:40:49;;;;;;;46.28;22.27;;;;;;;4.63;100.00;101194.72;5118243;28;20632;-52
2021/12/21 09:43:17;;;;;;;32.13;16.92;;;;;;;5.19;100.00;101205.47;5118104;28;20059;-50
2021/12/21 09:45:45;;;;;;;29.83;15.48;;;;;;;5.74;100.00;101207.34;5118421;28;20530;-50
2021/12/21 09:48:14;;;;;;;31.23;14.60;;;;;;;5.71;89.83;101215.34;5118416;28;20056;-50
2021/12/21 09:50:44;;;;;;;26.48;14.57;;;;;;;5.31;82.02;101224.41;5117881;28;20169;-49
2021/12/21 09:53:12;;;;;;;29.90;15.20;;;;;;;5.74;77.65;101225.78;5117812;28;20055;-49
2021/12/21 09:55:47;;;;;;;26.15;14.68;;;;;;;6.76;72.50;101225.13;5118101;28;20051;-50
2021/12/21 09:58:16;;;;;;;28.67;15.77;;;;;;;6.76;72.50;101225.13;5118937;28;20395;-49
2021/12/21 10:00:44;;;;;;;27.42;14.38;;;;;;;8.18;62.73;101241.81;5117708;28;20055;-49
2021/12/21 10:03:14;;;;;;;24.52;14.20;;;;;;;8.23;62.62;101233.72;5118803;28;20134;-49
2021/12/21 10:05:46;;;;;;;26.90;13.60;;;;;;;8.62;60.24;101230.34;5118024;28;20463;-49
2021/12/21 10:08:16;;;;;;;26.42;14.27;;;;;;;9.95;58.84;101236.72;5118248;28;20051;-49
2021/12/21 10:10:46;;;;;;;26.95;15.45;;;;;;;10.94;54.72;101242.44;5118782;28;20051;-50
2021/12/21 10:13:18;;;;;;;26.02;14.07;;;;;;;10.07;53.39;101237.06;5117833;28;20056;-49
2021/12/21 10:15:49;;;;;;;24.00;14.40;;;;;;;9.97;53.41;101234.84;5117329;28;20062;-50
2021/12/21 10:18:23;;;;;;;22.95;13.27;;;;;;;9.68;54.55;101233.56;5117718;28;20058;-49
2021/12/21 10:20:54;;;;;;;24.20;13.52;;;;;;;9.76;53.25;101239.38;5117259;28;20056;-50
2021/12/21 10:23:24;;;;;;;25.40;14.73;;;;;;;9.54;54.32;101247.47;5118457;28;20059;-49
2021/12/21 10:25:54;;;;;;;23.70;13.52;;;;;;;8.70;55.94;101247.63;5117025;28;20055;-50
2021/12/21 10:28:30;;;;;;;32.83;15.00;;;;;;;8.90;55.72;101233.53;5118194;28;20062;-49
2021/12/21 10:31:00;;;;;;;27.13;14.50;;;;;;;9.95;53.49;101220.81;5117715;28;20052;-50
2021/12/21 10:33:29;;;;;;;24.13;13.50;;;;;;;10.15;52.42;101232.25;5118430;28;20399;-49
2021/12/21 10:36:01;;;;;;;25.58;14.65;;;;;;;10.60;50.82;101233.56;5117481;28;20078;-50
2021/12/21 10:38:33;;;;;;;25.15;14.02;;;;;;;11.46;47.98;101234.38;5117154;28;20059;-50
2021/12/21 10:41:08;;;;;;;;;;;;;;;11.55;47.15;101227.72;5117623;28;20508;-49
2021/12/21 10:43:36;;;;;;;27.27;14.30;;;;;;;11.08;47.73;101218.72;5117683;28;19920;-50
2021/12/21 10:46:05;;;;;;;37.30;15.07;;;;;;;10.58;48.94;101224.84;5116897;28;20051;-49
2021/12/21 10:48:36;;;;;;;28.05;13.85;;;;;;;10.36;50.73;101214.47;5117210;28;20082;-49
2021/12/21 10:51:11;;;;;;;24.45;14.00;;;;;;;10.58;50.87;101214.22;5116725;28;20051;-50
2021/12/21 10:53:46;;;;;;;24.83;13.60;;;;;;;10.30;49.58;101212.91;5116632;28;20058;-49
2021/12/21 10:56:17;;;;;;;24.90;13.57;;;;;;;10.76;47.91;101217.75;5116582;28;20052;-49
2021/12/21 10:58:46;;;;;;;23.85;13.13;;;;;;;10.06;51.20;101216.78;5117965;28;20052;-50
2021/12/21 11:01:19;;;;;;;24.90;13.45;;;;;;;10.77;49.28;101204.38;5116647;28;20051;-50
2021/12/21 11:03:51;;;;;;;22.80;13.35;;;;;;;11.90;47.00;101195.63;5116375;28;20418;-50
2021/12/21 11:06:24;;;;;;;22.33;13.18;;;;;;;12.94;43.92;101193.97;5116370;28;20055;-49
2021/12/21 11:08:54;;;;;;;19.77;12.77;;;;;;;12.26;44.44;101191.84;5116288;28;20066;-48
2021/12/21 11:11:27;;;;;;;20.35;12.70;;;;;;;12.74;43.58;101189.91;5116751;28;20414;-50
2021/12/21 11:14:03;;;;;;;24.67;13.48;;;;;;;12.24;44.27;101183.97;5117071;28;20487;-50
2021/12/21 11:16:37;;;;;;;25.83;13.15;;;;;;;12.84;43.39;101187.50;5116105;28;20059;-50
2021/12/21 11:19:06;;;;;;;27.95;12.88;;;;;;;12.08;44.46;101183.13;5117295;28;20078;-50
2021/12/21 11:21:37;;;;;;;26.20;12.88;;;;;;;11.87;45.51;101191.38;5116538;28;20067;-50
2021/12/21 11:24:07;;;;;;;22.08;12.50;;;;;;;12.37;44.06;101183.22;5115985;28;20055;-49
2021/12/21 11:26:36;;;;;;;19.30;11.57;;;;;;;13.02;42.73;101170.41;5116948;28;20059;-50
2021/12/21 11:29:07;;;;;;;23.92;12.55;;;;;;;12.20;43.62;101178.91;5116965;28;20399;-50
2021/12/21 11:31:39;;;;;;;20.80;12.98;;;;;;;12.52;44.27;101171.66;5116943;28;20056;-51
2021/12/21 11:34:09;;;;;;;23.90;13.40;;;;;;;13.58;41.83;101172.28;5115766;28;20527;-50
2021/12/21 11:39:30;;;;;;;24.38;13.10;;;;;;;14.30;39.57;101180.88;5116248;28;20052;-50
2021/12/21 11:41:58;;;;;;;25.67;13.10;;;;;;;13.98;40.70;101184.84;5115633;28;20533;-49
2021/12/21 11:44:34;;;;;;;22.85;12.35;;;;;;;16.44;35.79;101172.84;5117115;28;20056;-49
2021/12/21 11:47:02;;;;;;;22.15;12.85;;;;;;;16.76;34.11;101164.16;5115866;28;20074;-50
2021/12/21 11:49:34;;;;;;;25.30;13.13;;;;;;;14.72;38.04;101164.75;5116045;28;20065;-50